PAFA/FAI METAR and TAF weather

Enter ICAO airport designator
Station Type Date Time Source
PAFA METAR 2019/12/09 21:53 UTC NOAA

PAFA 092153Z 06005KT 10SM SCT090 BKN150 BKN200 M06/M08 A2941 RMK AO2 SLP972 T10561083


Station Type Date Time Source
PAFA Decoded METAR 2019/12/09 21:53 UTC NOAA

Fairbanks, Fairbanks International Airport, AK, United States (PAFA) 64-48-14N 147-52-34W 140M
Dec 09, 2019 - 04:53 PM EST / 2019.12.09 2153 UTC
Wind: from the ENE (060 degrees) at 6 MPH (5 KT):0
Visibility: 10 mile(s):0
Sky conditions: mostly cloudy
Temperature: 21.9 F (-5.6 C)
Windchill: 14 F (-10 C):1
Dew Point: 17.1 F (-8.3 C)
Relative Humidity: 81%
Pressure (altimeter): 29.41 in. Hg (995 hPa)
ob: PAFA 092153Z 06005KT 10SM SCT090 BKN150 BKN200 M06/M08 A2941 RMK AO2 SLP972 T10561083
cycle: 22

Station Type Date Time Source
PAFA TAF 2019/12/09 18:28 UTC NOAA

TAF PAFA 091723Z 0918/1024 04004KT P6SM BKN160 WS018/12035KT
FM100900 00000KT P6SM BKN100

Example: see airport list